createdAt,value
2023-02-11T00:00:29.749Z,0.00
2023-02-11T00:01:02.046Z,0.00
2023-02-11T00:01:33.337Z,0.00
2023-02-11T00:02:05.431Z,0.00
2023-02-11T00:02:37.477Z,0.00
2023-02-11T00:03:09.471Z,0.00
2023-02-11T00:03:41.252Z,0.00
2023-02-11T00:04:13.150Z,0.00
2023-02-11T00:04:45.274Z,0.00
2023-02-11T00:05:17.510Z,0.00
2023-02-11T00:05:49.374Z,0.00
2023-02-11T00:06:05.387Z,0.00
2023-02-11T00:06:49.118Z,0.00
2023-02-11T00:07:21.481Z,0.00
2023-02-11T00:07:53.212Z,0.00
2023-02-11T00:08:24.996Z,0.00
2023-02-11T00:08:57.119Z,0.00
2023-02-11T00:09:31.722Z,0.00
2023-02-11T00:10:01.872Z,0.00
2023-02-11T00:10:33.221Z,0.00
2023-02-11T00:11:05.064Z,0.00
2023-02-11T00:11:37.098Z,0.00
2023-02-11T00:12:09.117Z,0.00
2023-02-11T00:12:41.031Z,0.00
2023-02-11T00:13:12.882Z,0.00
2023-02-11T00:13:44.804Z,0.00
2023-02-11T00:14:16.953Z,0.00
2023-02-11T00:14:48.761Z,0.00
2023-02-11T00:15:06.644Z,0.00
2023-02-11T00:15:36.804Z,0.00
2023-02-11T00:16:20.912Z,0.00
2023-02-11T00:16:53.190Z,0.00
2023-02-11T00:17:24.702Z,0.00
2023-02-11T00:17:56.569Z,0.00
2023-02-11T00:18:28.562Z,0.00
2023-02-11T00:19:00.779Z,0.00
2023-02-11T00:19:32.897Z,0.00
2023-02-11T00:20:07.926Z,0.00
2023-02-11T00:20:36.546Z,0.00
2023-02-11T00:21:08.616Z,0.00
2023-02-11T00:21:40.555Z,0.00
2023-02-11T00:22:12.708Z,0.00
2023-02-11T00:22:44.385Z,0.00
2023-02-11T00:23:16.574Z,0.00
2023-02-11T00:23:48.424Z,0.00
2023-02-11T00:24:04.830Z,0.00
2023-02-11T00:24:48.346Z,0.00
2023-02-11T00:25:20.644Z,0.00
2023-02-11T00:25:52.980Z,0.00
2023-02-11T00:26:24.277Z,0.00
2023-02-11T00:26:56.196Z,0.00
2023-02-11T00:27:28.258Z,0.00
2023-02-11T00:28:00.320Z,0.00
2023-02-11T00:28:32.541Z,0.00
2023-02-11T00:29:04.449Z,0.00
2023-02-11T00:29:36.237Z,0.00
2023-02-11T00:30:09.392Z,0.00
2023-02-11T00:30:40.070Z,0.00
2023-02-11T00:31:12.326Z,0.00
2023-02-11T00:31:44.325Z,0.00
2023-02-11T00:32:16.040Z,0.00
2023-02-11T00:32:47.997Z,0.00
2023-02-11T00:33:19.993Z,0.00
2023-02-11T00:33:52.045Z,0.00
2023-02-11T00:34:24.090Z,0.00
2023-02-11T00:34:55.847Z,0.00
2023-02-11T00:35:28.012Z,0.00
2023-02-11T00:35:59.891Z,0.00
2023-02-11T00:36:31.970Z,0.00
2023-02-11T00:37:04.309Z,0.00
2023-02-11T00:37:19.972Z,0.00
2023-02-11T00:37:51.832Z,0.00
2023-02-11T00:38:35.843Z,0.00
2023-02-11T00:39:07.878Z,0.00
2023-02-11T00:39:39.756Z,0.00
2023-02-11T00:40:12.218Z,0.00
2023-02-11T00:40:43.757Z,0.00
2023-02-11T00:41:15.692Z,0.00
2023-02-11T00:41:47.578Z,0.00
2023-02-11T00:42:04.514Z,0.00
2023-02-11T00:42:47.478Z,0.00
2023-02-11T00:43:04.206Z,0.00
2023-02-11T00:43:47.605Z,0.00
2023-02-11T00:44:19.684Z,0.00
2023-02-11T00:44:51.680Z,0.00
2023-02-11T00:45:23.861Z,0.00
2023-02-11T00:45:55.539Z,0.00
2023-02-11T00:46:27.649Z,0.00
2023-02-11T00:46:59.363Z,0.00
2023-02-11T00:47:31.663Z,0.00
2023-02-11T00:48:04.406Z,0.00
2023-02-11T00:48:35.552Z,0.00
2023-02-11T00:49:07.330Z,0.00
2023-02-11T00:49:39.525Z,0.00
2023-02-11T00:50:11.971Z,0.00
2023-02-11T00:50:43.348Z,0.00
2023-02-11T00:51:15.188Z,0.00
2023-02-11T00:51:47.347Z,0.00
2023-02-11T00:52:04.431Z,0.00
2023-02-11T00:52:35.248Z,0.00
2023-02-11T00:52:51.522Z,0.00
2023-02-11T00:53:23.296Z,0.00
2023-02-11T00:53:55.099Z,0.00
2023-02-11T00:54:29.944Z,0.00
2023-02-11T00:54:59.276Z,0.00
2023-02-11T00:55:31.535Z,0.00
2023-02-11T00:56:04.179Z,0.00
2023-02-11T00:56:19.138Z,0.00
2023-02-11T00:56:51.227Z,0.00
2023-02-11T00:57:35.207Z,0.00
2023-02-11T00:58:06.837Z,0.00
2023-02-11T00:58:38.927Z,0.00
2023-02-11T00:59:11.240Z,0.00
2023-02-11T00:59:43.125Z,0.00
2023-02-11T01:00:15.450Z,0.00
2023-02-11T01:00:46.800Z,0.00
2023-02-11T01:01:18.949Z,0.00
2023-02-11T01:01:51.039Z,0.00
2023-02-11T01:02:22.782Z,0.00
2023-02-11T01:02:54.776Z,0.00
2023-02-11T01:03:26.718Z,0.00
2023-02-11T01:03:58.726Z,0.00
2023-02-11T01:04:30.628Z,0.00
2023-02-11T01:05:03.852Z,0.00
2023-02-11T01:05:18.914Z,0.00
2023-02-11T01:06:04.000Z,0.00
2023-02-11T01:06:34.716Z,0.00
2023-02-11T01:07:06.511Z,0.00
2023-02-11T01:07:38.615Z,0.00
2023-02-11T01:08:10.797Z,0.00
2023-02-11T01:08:43.031Z,0.00
2023-02-11T01:09:14.516Z,0.00
2023-02-11T01:09:46.413Z,0.00
2023-02-11T01:10:18.816Z,0.00
2023-02-11T01:10:50.566Z,0.00
2023-02-11T01:11:22.441Z,0.00
2023-02-11T01:11:54.370Z,0.00
2023-02-11T01:12:26.515Z,0.00
2023-02-11T01:12:58.417Z,0.00
2023-02-11T01:13:30.265Z,0.00
2023-02-11T01:14:03.647Z,0.00
2023-02-11T01:14:34.487Z,0.00
2023-02-11T01:15:07.310Z,0.00
2023-02-11T01:15:38.128Z,0.00
2023-02-11T01:16:10.435Z,0.00
2023-02-11T01:16:42.491Z,0.00
2023-02-11T01:17:14.246Z,0.00
2023-02-11T01:17:46.061Z,0.00
2023-02-11T01:18:03.577Z,0.00
2023-02-11T01:18:46.100Z,0.00
2023-02-11T01:19:18.120Z,0.00
2023-02-11T01:19:50.236Z,0.00
2023-02-11T01:20:22.567Z,0.00
2023-02-11T01:20:54.014Z,0.00
2023-02-11T01:21:26.034Z,0.00
2023-02-11T01:21:58.057Z,0.00
2023-02-11T01:22:29.902Z,0.00
2023-02-11T01:23:02.909Z,0.00
2023-02-11T01:23:34.188Z,0.00
2023-02-11T01:24:05.988Z,0.00
2023-02-11T01:24:37.802Z,0.00
2023-02-11T01:25:10.088Z,0.00
2023-02-11T01:25:42.025Z,0.00
2023-02-11T01:26:13.881Z,0.00
2023-02-11T01:26:45.915Z,0.00
2023-02-11T01:27:02.464Z,0.00
2023-02-11T01:27:33.960Z,0.00
2023-02-11T01:28:17.933Z,0.00
2023-02-11T01:28:49.704Z,0.00
2023-02-11T01:29:21.669Z,0.00
2023-02-11T01:29:53.662Z,0.00
2023-02-11T01:30:26.066Z,0.00
2023-02-11T01:30:57.622Z,0.00
2023-02-11T01:31:29.567Z,0.00
2023-02-11T01:32:01.957Z,0.00
2023-02-11T01:32:33.660Z,0.00
2023-02-11T01:33:05.684Z,0.00
2023-02-11T01:33:37.303Z,0.00
2023-02-11T01:34:09.466Z,0.00
2023-02-11T01:34:41.762Z,0.00
2023-02-11T01:35:13.720Z,0.00
2023-02-11T01:35:45.284Z,0.00
2023-02-11T01:36:01.889Z,0.00
2023-02-11T01:36:45.321Z,0.00
2023-02-11T01:37:17.468Z,0.00
2023-02-11T01:37:49.364Z,0.00
2023-02-11T01:38:21.213Z,0.00
2023-02-11T01:38:53.254Z,0.00
2023-02-11T01:39:25.259Z,0.00
2023-02-11T01:39:57.292Z,0.00
2023-02-11T01:40:29.401Z,0.00
2023-02-11T01:41:01.550Z,0.00
2023-02-11T01:41:33.302Z,0.00
2023-02-11T01:42:05.368Z,0.00
2023-02-11T01:42:37.065Z,0.00
2023-02-11T01:43:09.164Z,0.00
2023-02-11T01:43:41.378Z,0.00
2023-02-11T01:44:13.314Z,0.00
2023-02-11T01:44:44.899Z,0.00
2023-02-11T01:45:03.572Z,0.00
2023-02-11T01:45:33.219Z,0.00
2023-02-11T01:46:16.964Z,0.00
2023-02-11T01:46:49.124Z,0.00
2023-02-11T01:47:21.118Z,0.00
2023-02-11T01:47:52.788Z,0.00
2023-02-11T01:48:24.998Z,0.00
2023-02-11T01:48:56.915Z,0.00
2023-02-11T01:49:28.786Z,0.00
2023-02-11T01:50:01.266Z,0.00
2023-02-11T01:50:33.146Z,0.00
2023-02-11T01:51:04.926Z,0.00
2023-02-11T01:51:36.781Z,0.00
2023-02-11T01:52:08.685Z,0.00
2023-02-11T01:52:40.852Z,0.00
2023-02-11T01:53:12.881Z,0.00
2023-02-11T01:53:44.542Z,0.00
2023-02-11T01:54:00.787Z,0.00
2023-02-11T01:54:44.531Z,0.00
2023-02-11T01:55:16.995Z,0.00
2023-02-11T01:55:49.006Z,0.00
2023-02-11T01:56:20.414Z,0.00
2023-02-11T01:56:52.904Z,0.00
2023-02-11T01:57:24.608Z,0.00
2023-02-11T01:57:56.539Z,0.00
2023-02-11T01:58:28.405Z,0.00
2023-02-11T01:59:00.549Z,0.00
2023-02-11T01:59:32.837Z,0.00
2023-02-11T02:00:07.295Z,0.00
2023-02-11T02:00:36.376Z,0.00
2023-02-11T02:01:08.318Z,0.00
2023-02-11T02:01:40.662Z,0.00
2023-02-11T02:02:12.727Z,0.00
2023-02-11T02:02:44.271Z,0.00
2023-02-11T02:03:00.472Z,0.00
2023-02-11T02:03:32.393Z,0.00
2023-02-11T02:03:48.303Z,0.00
2023-02-11T02:04:20.349Z,0.00
2023-02-11T02:04:52.510Z,0.00
2023-02-11T02:05:24.515Z,0.00
2023-02-11T02:05:56.232Z,0.00
2023-02-11T02:06:28.254Z,0.00
2023-02-11T02:07:00.129Z,0.00
2023-02-11T02:07:16.182Z,0.00
2023-02-11T02:07:48.173Z,0.00
2023-02-11T02:08:32.341Z,0.00
2023-02-11T02:09:04.682Z,0.00
2023-02-11T02:09:35.897Z,0.00
2023-02-11T02:10:08.100Z,0.00
2023-02-11T02:10:40.012Z,0.00
2023-02-11T02:11:12.215Z,0.00
2023-02-11T02:11:43.765Z,0.00
2023-02-11T02:12:00.029Z,0.00
2023-02-11T02:12:43.814Z,0.00
2023-02-11T02:13:15.823Z,0.00
2023-02-11T02:13:47.993Z,0.00
2023-02-11T02:14:19.833Z,0.00
2023-02-11T02:14:51.936Z,0.00
2023-02-11T02:15:24.324Z,0.00
2023-02-11T02:15:55.891Z,0.00
2023-02-11T02:16:27.715Z,0.00
2023-02-11T02:16:59.683Z,0.00
2023-02-11T02:17:31.860Z,0.00
2023-02-11T02:18:04.612Z,0.00
2023-02-11T02:18:35.701Z,0.00
2023-02-11T02:19:07.623Z,0.00
2023-02-11T02:19:39.693Z,0.00
2023-02-11T02:20:12.037Z,0.00
2023-02-11T02:20:43.579Z,0.00
2023-02-11T02:21:15.529Z,0.00
2023-02-11T02:21:47.558Z,0.00
2023-02-11T02:22:19.534Z,0.00
2023-02-11T02:22:51.770Z,0.00
2023-02-11T02:23:07.605Z,0.00
2023-02-11T02:23:39.480Z,0.00
2023-02-11T02:24:23.365Z,0.00
2023-02-11T02:24:55.289Z,0.00
2023-02-11T02:25:27.551Z,0.00
2023-02-11T02:25:59.290Z,0.00
2023-02-11T02:26:31.566Z,0.00
2023-02-11T02:27:04.011Z,0.00
2023-02-11T02:27:35.178Z,0.00
2023-02-11T02:28:07.183Z,0.00
2023-02-11T02:28:39.293Z,0.00
2023-02-11T02:29:11.212Z,0.00
2023-02-11T02:29:43.064Z,0.00
2023-02-11T02:30:15.988Z,0.00
2023-02-11T02:30:47.136Z,0.00
2023-02-11T02:31:19.045Z,0.00
2023-02-11T02:31:51.128Z,0.00
2023-02-11T02:32:23.077Z,0.00
2023-02-11T02:32:55.099Z,0.00
2023-02-11T02:33:26.842Z,0.00
2023-02-11T02:33:58.970Z,0.00
2023-02-11T02:34:14.951Z,0.00
2023-02-11T02:34:59.033Z,0.00
2023-02-11T02:35:31.597Z,0.00
2023-02-11T02:36:03.840Z,0.00
2023-02-11T02:36:34.829Z,0.00
2023-02-11T02:37:06.875Z,0.00
2023-02-11T02:37:38.953Z,0.00
2023-02-11T02:38:11.113Z,0.00
2023-02-11T02:38:42.772Z,0.00
2023-02-11T02:39:14.710Z,0.00
2023-02-11T02:39:46.841Z,0.00
2023-02-11T02:40:19.193Z,0.00
2023-02-11T02:40:50.792Z,0.00
2023-02-11T02:41:22.734Z,0.00
2023-02-11T02:41:54.781Z,0.00
2023-02-11T02:42:26.480Z,0.00
2023-02-11T02:42:58.674Z,0.00
2023-02-11T02:43:14.571Z,0.00
2023-02-11T02:43:46.470Z,0.00
2023-02-11T02:44:30.643Z,0.00
2023-02-11T02:45:05.682Z,0.00
2023-02-11T02:45:34.465Z,0.00
2023-02-11T02:46:06.432Z,0.00
2023-02-11T02:46:38.427Z,0.00
2023-02-11T02:47:10.441Z,0.00
2023-02-11T02:47:42.797Z,0.00
2023-02-11T02:47:59.028Z,0.00
2023-02-11T02:48:42.550Z,0.00
2023-02-11T02:49:14.389Z,0.00
2023-02-11T02:49:46.155Z,0.00
2023-02-11T02:50:18.705Z,0.00
2023-02-11T02:50:50.310Z,0.00
2023-02-11T02:51:22.544Z,0.00
2023-02-11T02:51:54.163Z,0.00
2023-02-11T02:52:26.125Z,0.00
2023-02-11T02:52:58.226Z,0.00
2023-02-11T02:53:30.325Z,0.00
2023-02-11T02:54:02.644Z,0.00
2023-02-11T02:54:34.090Z,0.00
2023-02-11T02:55:06.375Z,0.00
2023-02-11T02:55:38.002Z,0.00
2023-02-11T02:56:09.927Z,0.00
2023-02-11T02:56:42.140Z,0.00
2023-02-11T02:57:14.011Z,0.00
2023-02-11T02:57:46.012Z,0.00
2023-02-11T02:58:17.850Z,0.00
2023-02-11T02:58:49.862Z,0.00
2023-02-11T02:59:22.203Z,0.00
2023-02-11T02:59:53.986Z,0.00
2023-02-11T03:00:26.323Z,0.00
2023-02-11T03:00:57.938Z,0.00
2023-02-11T03:01:14.037Z,0.00
2023-02-11T03:01:45.729Z,0.00
2023-02-11T03:02:29.906Z,0.00
2023-02-11T03:03:02.106Z,0.00
2023-02-11T03:03:33.844Z,0.00
2023-02-11T03:04:05.856Z,0.00
2023-02-11T03:04:37.750Z,0.00
2023-02-11T03:05:09.961Z,0.00
2023-02-11T03:05:41.721Z,0.00
2023-02-11T03:06:13.710Z,0.00
2023-02-11T03:06:45.711Z,0.00
2023-02-11T03:07:17.455Z,0.00
2023-02-11T03:07:49.448Z,0.00
2023-02-11T03:08:21.738Z,0.00
2023-02-11T03:08:53.677Z,0.00
2023-02-11T03:09:25.435Z,0.00
2023-02-11T03:09:57.579Z,0.00
2023-02-11T03:10:13.917Z,0.00
2023-02-11T03:10:57.587Z,0.00
2023-02-11T03:11:29.380Z,0.00
2023-02-11T03:12:01.621Z,0.00
2023-02-11T03:12:33.592Z,0.00
2023-02-11T03:13:05.410Z,0.00
2023-02-11T03:13:37.418Z,0.00
2023-02-11T03:14:09.259Z,0.00
2023-02-11T03:14:41.347Z,0.00
2023-02-11T03:15:14.324Z,0.00
2023-02-11T03:15:45.261Z,0.00
2023-02-11T03:16:17.190Z,0.00
2023-02-11T03:16:49.194Z,0.00
2023-02-11T03:17:21.341Z,0.00
2023-02-11T03:17:53.185Z,0.00
2023-02-11T03:18:25.088Z,0.00
2023-02-11T03:18:57.020Z,0.00
2023-02-11T03:19:13.183Z,0.00
2023-02-11T03:19:44.923Z,0.00
2023-02-11T03:20:29.499Z,0.00
2023-02-11T03:21:01.539Z,0.00
2023-02-11T03:21:33.242Z,0.00
2023-02-11T03:22:05.653Z,0.00
2023-02-11T03:22:36.934Z,0.00
2023-02-11T03:23:08.904Z,0.00
2023-02-11T03:23:41.210Z,0.00
2023-02-11T03:23:57.087Z,0.00
2023-02-11T03:24:41.040Z,0.00
2023-02-11T03:25:13.135Z,0.00
2023-02-11T03:25:44.623Z,0.00
2023-02-11T03:26:16.698Z,0.00
2023-02-11T03:26:48.785Z,0.00
2023-02-11T03:27:20.782Z,0.00
2023-02-11T03:27:52.729Z,0.00
2023-02-11T03:28:24.719Z,0.00
2023-02-11T03:28:56.693Z,0.00
2023-02-11T03:29:28.751Z,0.00
2023-02-11T03:30:01.860Z,0.00
2023-02-11T03:30:32.657Z,0.00
2023-02-11T03:31:05.182Z,0.00
2023-02-11T03:31:36.737Z,0.00
2023-02-11T03:32:08.644Z,0.00
2023-02-11T03:32:40.601Z,0.00
2023-02-11T03:33:12.702Z,0.00
2023-02-11T03:33:44.545Z,0.00
2023-02-11T03:34:16.350Z,0.00
2023-02-11T03:34:48.438Z,0.00
2023-02-11T03:35:20.759Z,0.00
2023-02-11T03:35:52.643Z,0.00
2023-02-11T03:36:24.442Z,0.00
2023-02-11T03:36:56.359Z,0.00
2023-02-11T03:37:12.634Z,0.00
2023-02-11T03:37:44.314Z,0.00
2023-02-11T03:38:28.440Z,0.00
2023-02-11T03:39:00.111Z,0.00
2023-02-11T03:39:32.521Z,0.00
2023-02-11T03:40:05.357Z,0.00
2023-02-11T03:40:36.246Z,0.00
2023-02-11T03:41:08.348Z,0.00
2023-02-11T03:41:40.342Z,0.00
2023-02-11T03:41:56.343Z,0.00
2023-02-11T03:42:40.996Z,0.00
2023-02-11T03:43:13.394Z,0.00
2023-02-11T03:43:44.068Z,0.00
2023-02-11T03:44:15.973Z,0.00
2023-02-11T03:44:48.047Z,0.00
2023-02-11T03:45:20.411Z,0.00
2023-02-11T03:45:52.582Z,0.00
2023-02-11T03:46:24.073Z,0.00
2023-02-11T03:46:55.959Z,0.00
2023-02-11T03:47:27.982Z,0.00
2023-02-11T03:47:59.898Z,0.00
2023-02-11T03:48:31.921Z,0.00
2023-02-11T03:49:04.447Z,0.00
2023-02-11T03:49:35.797Z,0.00
2023-02-11T03:50:07.987Z,0.00
2023-02-11T03:50:39.753Z,0.00
2023-02-11T03:51:11.696Z,0.00
2023-02-11T03:51:43.830Z,0.00
2023-02-11T03:52:15.774Z,0.00
2023-02-11T03:52:47.498Z,0.00
2023-02-11T03:53:19.648Z,0.00
2023-02-11T03:53:51.780Z,0.00
2023-02-11T03:54:23.603Z,0.00
2023-02-11T03:54:55.689Z,0.00
2023-02-11T03:55:12.064Z,0.00
2023-02-11T03:55:43.533Z,0.00
2023-02-11T03:56:27.611Z,0.00
2023-02-11T03:56:59.468Z,0.00
2023-02-11T03:57:31.776Z,0.00
2023-02-11T03:58:04.286Z,0.00
2023-02-11T03:58:35.617Z,0.00
2023-02-11T03:59:07.275Z,0.00
2023-02-11T03:59:39.416Z,0.00
2023-02-11T03:59:55.567Z,0.00
2023-02-11T04:00:39.796Z,0.00
2023-02-11T04:01:11.629Z,0.00
2023-02-11T04:01:43.189Z,0.00
2023-02-11T04:02:15.264Z,0.00
2023-02-11T04:02:47.213Z,0.00
2023-02-11T04:03:19.490Z,0.00
2023-02-11T04:03:51.259Z,0.00
2023-02-11T04:04:23.344Z,0.00
2023-02-11T04:04:55.258Z,0.00
2023-02-11T04:05:27.439Z,0.00
2023-02-11T04:05:59.031Z,0.00
2023-02-11T04:06:31.284Z,0.00
2023-02-11T04:07:03.994Z,0.00
2023-02-11T04:07:35.144Z,0.00
2023-02-11T04:08:06.953Z,0.00
2023-02-11T04:08:38.919Z,0.00
2023-02-11T04:08:55.309Z,0.00
2023-02-11T04:09:26.959Z,0.00
2023-02-11T04:09:43.285Z,0.00
2023-02-11T04:10:15.073Z,0.00
2023-02-11T04:10:46.938Z,0.00
2023-02-11T04:11:18.982Z,0.00
2023-02-11T04:11:50.991Z,0.00
2023-02-11T04:12:23.270Z,0.00
2023-02-11T04:12:54.922Z,0.00
2023-02-11T04:13:11.033Z,0.00
2023-02-11T04:13:42.800Z,0.00
2023-02-11T04:14:26.810Z,0.00
2023-02-11T04:14:58.610Z,0.00
2023-02-11T04:15:31.177Z,0.00
2023-02-11T04:16:04.127Z,0.00
2023-02-11T04:16:34.701Z,0.00
2023-02-11T04:17:06.672Z,0.00
2023-02-11T04:17:38.649Z,0.00
2023-02-11T04:17:54.817Z,0.00
2023-02-11T04:18:38.673Z,0.00
2023-02-11T04:19:10.658Z,0.00
2023-02-11T04:19:42.640Z,0.00
2023-02-11T04:20:14.862Z,0.00
2023-02-11T04:20:46.467Z,0.00
2023-02-11T04:21:18.516Z,0.00
2023-02-11T04:21:50.440Z,0.00
2023-02-11T04:22:22.697Z,0.00
2023-02-11T04:22:54.505Z,0.00
2023-02-11T04:23:26.561Z,0.00
2023-02-11T04:23:58.296Z,0.00
2023-02-11T04:24:30.341Z,0.00
2023-02-11T04:25:03.509Z,0.00
2023-02-11T04:25:34.518Z,0.00
2023-02-11T04:26:06.209Z,0.00
2023-02-11T04:26:38.200Z,0.00
2023-02-11T04:26:54.462Z,0.00
2023-02-11T04:27:26.201Z,0.00
2023-02-11T04:27:42.558Z,0.00
2023-02-11T04:28:14.126Z,0.00
2023-02-11T04:28:46.165Z,0.00
2023-02-11T04:29:18.179Z,0.00
2023-02-11T04:29:50.155Z,0.00
2023-02-11T04:30:22.678Z,0.00
2023-02-11T04:30:54.344Z,0.00
2023-02-11T04:31:10.274Z,0.00
2023-02-11T04:31:42.086Z,0.00
2023-02-11T04:32:25.994Z,0.00
2023-02-11T04:32:57.828Z,0.00
2023-02-11T04:33:14.018Z,0.00
2023-02-11T04:33:45.996Z,0.00
2023-02-11T04:34:29.980Z,0.00
2023-02-11T04:35:03.226Z,0.00
2023-02-11T04:35:33.870Z,0.00
2023-02-11T04:36:05.948Z,0.00
2023-02-11T04:36:37.858Z,0.00
2023-02-11T04:37:09.949Z,0.00
2023-02-11T04:37:41.816Z,0.00
2023-02-11T04:38:13.679Z,0.00
2023-02-11T04:38:45.787Z,0.00
2023-02-11T04:39:17.858Z,0.00
2023-02-11T04:39:49.690Z,0.00
2023-02-11T04:40:22.242Z,0.00
2023-02-11T04:40:53.698Z,0.00
2023-02-11T04:41:25.759Z,0.00
2023-02-11T04:41:57.584Z,0.00
2023-02-11T04:42:29.561Z,0.00
2023-02-11T04:43:02.231Z,0.00
2023-02-11T04:43:33.689Z,0.00
2023-02-11T04:44:05.808Z,0.00
2023-02-11T04:44:37.425Z,0.00
2023-02-11T04:44:53.573Z,0.00
2023-02-11T04:45:26.036Z,0.00
2023-02-11T04:46:09.582Z,0.00
2023-02-11T04:46:41.728Z,0.00
2023-02-11T04:47:13.397Z,0.00
2023-02-11T04:47:45.308Z,0.00
2023-02-11T04:48:17.392Z,0.00
2023-02-11T04:48:49.692Z,0.00
2023-02-11T04:49:21.449Z,0.00
2023-02-11T04:49:53.319Z,0.00
2023-02-11T04:50:25.708Z,0.00
2023-02-11T04:50:57.270Z,0.00
2023-02-11T04:51:29.231Z,0.00
2023-02-11T04:52:01.617Z,0.00
2023-02-11T04:52:33.208Z,0.00
2023-02-11T04:53:05.260Z,0.00
2023-02-11T04:53:36.999Z,0.00
2023-02-11T04:53:53.358Z,0.00
2023-02-11T04:54:37.099Z,0.00
2023-02-11T04:55:09.498Z,0.00
2023-02-11T04:55:41.467Z,0.00
2023-02-11T04:56:13.057Z,0.00
2023-02-11T04:56:45.046Z,0.00
2023-02-11T04:57:17.014Z,0.00
2023-02-11T04:57:49.163Z,0.00
2023-02-11T04:58:21.209Z,0.00
2023-02-11T04:58:52.995Z,0.00
2023-02-11T04:59:25.022Z,0.00
2023-02-11T04:59:56.991Z,0.00
2023-02-11T05:00:29.201Z,0.00
2023-02-11T05:01:01.129Z,0.00
2023-02-11T05:01:33.069Z,0.00
2023-02-11T05:02:05.492Z,0.00
2023-02-11T05:02:36.657Z,0.00
2023-02-11T05:02:53.199Z,0.00
2023-02-11T05:03:24.741Z,0.00
2023-02-11T05:03:41.221Z,0.00
2023-02-11T05:04:12.857Z,0.00
2023-02-11T05:04:44.564Z,0.00
2023-02-11T05:05:16.923Z,0.00
2023-02-11T05:05:49.074Z,0.00
2023-02-11T05:06:21.090Z,0.00
2023-02-11T05:06:52.754Z,0.00
2023-02-11T05:07:08.740Z,0.00
2023-02-11T05:07:40.624Z,0.00
2023-02-11T05:08:24.573Z,0.00
2023-02-11T05:08:56.315Z,0.00
2023-02-11T05:09:28.512Z,0.00
2023-02-11T05:10:00.685Z,0.00
2023-02-11T05:10:32.618Z,0.00
2023-02-11T05:11:04.805Z,0.00
2023-02-11T05:11:36.489Z,0.00
2023-02-11T05:11:52.634Z,0.00
2023-02-11T05:12:36.504Z,0.00
2023-02-11T05:13:08.430Z,0.00
2023-02-11T05:13:40.541Z,0.00
2023-02-11T05:14:12.475Z,0.00
2023-02-11T05:14:44.322Z,0.00
2023-02-11T05:15:17.695Z,0.00
2023-02-11T05:15:48.582Z,0.00
2023-02-11T05:16:20.389Z,0.00
2023-02-11T05:16:52.609Z,0.00
2023-02-11T05:17:24.444Z,0.00
2023-02-11T05:17:56.070Z,0.00
2023-02-11T05:18:28.130Z,0.00
2023-02-11T05:19:00.238Z,0.00
2023-02-11T05:19:32.331Z,0.00
2023-02-11T05:20:04.824Z,0.00
2023-02-11T05:20:36.029Z,0.00
2023-02-11T05:21:08.097Z,0.00
2023-02-11T05:21:50.354Z,0.00
2023-02-11T05:22:12.084Z,0.00
2023-02-11T05:22:43.921Z,0.00
2023-02-11T05:23:16.010Z,0.00
2023-02-11T05:23:47.967Z,0.00
2023-02-11T05:24:20.032Z,0.00
2023-02-11T05:24:52.043Z,0.00
2023-02-11T05:25:24.176Z,0.00
2023-02-11T05:25:56.006Z,0.00
2023-02-11T05:26:27.630Z,0.00
2023-02-11T05:26:59.733Z,0.00
2023-02-11T05:27:31.961Z,0.00
2023-02-11T05:28:04.401Z,0.00
2023-02-11T05:28:35.751Z,0.00
2023-02-11T05:29:07.618Z,0.00
2023-02-11T05:29:39.641Z,0.00
2023-02-11T05:30:13.270Z,0.00
2023-02-11T05:30:43.665Z,0.00
2023-02-11T05:31:15.504Z,0.00
2023-02-11T05:31:47.604Z,0.00
2023-02-11T05:32:19.631Z,0.00
2023-02-11T05:32:51.620Z,0.00
2023-02-11T05:33:07.593Z,0.00
2023-02-11T05:33:51.731Z,0.00
2023-02-11T05:34:23.484Z,0.00
2023-02-11T05:34:55.601Z,0.00
2023-02-11T05:35:27.585Z,0.00
2023-02-11T05:35:59.426Z,0.00
2023-02-11T05:36:33.384Z,0.00
2023-02-11T05:37:04.280Z,0.00
2023-02-11T05:37:35.401Z,0.00
2023-02-11T05:37:51.577Z,0.00
2023-02-11T05:38:23.255Z,0.00
2023-02-11T05:38:39.509Z,0.00
2023-02-11T05:39:11.434Z,0.00
2023-02-11T05:39:43.267Z,0.00
2023-02-11T05:40:15.380Z,0.00
2023-02-11T05:40:47.233Z,0.00
2023-02-11T05:41:19.071Z,0.00
2023-02-11T05:41:51.392Z,0.00
2023-02-11T05:42:07.165Z,0.00
2023-02-11T05:42:38.966Z,0.00
2023-02-11T05:43:23.169Z,0.00
2023-02-11T05:43:55.106Z,0.00
2023-02-11T05:44:26.954Z,0.00
2023-02-11T05:44:59.012Z,0.00
2023-02-11T05:45:31.464Z,0.00
2023-02-11T05:46:03.712Z,0.00
2023-02-11T05:46:35.025Z,0.00
2023-02-11T05:46:51.252Z,0.00
2023-02-11T05:47:35.423Z,0.00
2023-02-11T05:48:06.938Z,0.00
2023-02-11T05:48:38.926Z,0.00
2023-02-11T05:49:11.088Z,0.00
2023-02-11T05:49:42.986Z,0.00
2023-02-11T05:50:15.015Z,0.00
2023-02-11T05:50:46.681Z,0.00
2023-02-11T05:51:18.708Z,0.00
2023-02-11T05:51:51.034Z,0.00
2023-02-11T05:52:22.979Z,0.00
2023-02-11T05:52:54.756Z,0.00
2023-02-11T05:53:26.614Z,0.00
2023-02-11T05:53:58.687Z,0.00
2023-02-11T05:54:30.683Z,0.00
2023-02-11T05:55:03.700Z,0.00
2023-02-11T05:55:34.577Z,0.00
2023-02-11T05:55:51.473Z,0.00
2023-02-11T05:56:22.485Z,0.00
2023-02-11T05:56:38.649Z,0.00
2023-02-11T05:57:10.497Z,0.00
2023-02-11T05:57:42.632Z,0.00
2023-02-11T05:58:14.498Z,0.00
2023-02-11T05:58:46.462Z,0.00
2023-02-11T05:59:18.254Z,0.00
2023-02-11T05:59:50.565Z,0.00
2023-02-11T06:00:07.458Z,0.00
2023-02-11T06:00:38.295Z,0.00
2023-02-11T06:01:22.534Z,0.00
2023-02-11T06:01:54.216Z,0.00
2023-02-11T06:02:26.325Z,0.00
2023-02-11T06:02:58.362Z,0.00
2023-02-11T06:03:30.402Z,0.00
2023-02-11T06:04:03.017Z,0.00
2023-02-11T06:04:34.205Z,0.00
2023-02-11T06:05:06.517Z,0.00
2023-02-11T06:05:38.208Z,0.00
2023-02-11T06:06:10.114Z,0.00
2023-02-11T06:06:42.384Z,0.00
2023-02-11T06:07:14.152Z,0.00
2023-02-11T06:07:46.051Z,0.00
2023-02-11T06:08:17.887Z,0.00
2023-02-11T06:08:50.163Z,0.00
2023-02-11T06:09:22.159Z,0.00
2023-02-11T06:09:54.106Z,0.00
2023-02-11T06:10:26.843Z,0.00
2023-02-11T06:10:57.851Z,0.00
2023-02-11T06:11:29.939Z,0.00
2023-02-11T06:12:02.553Z,0.00
2023-02-11T06:12:33.927Z,0.00
2023-02-11T06:12:50.010Z,0.00
2023-02-11T06:13:21.940Z,0.00
2023-02-11T06:13:37.824Z,0.00
2023-02-11T06:14:09.933Z,0.00
2023-02-11T06:14:42.052Z,0.00
2023-02-11T06:15:14.758Z,0.00
2023-02-11T06:15:45.828Z,0.00
2023-02-11T06:16:17.809Z,0.00
2023-02-11T06:16:49.559Z,0.00
2023-02-11T06:17:05.742Z,0.00
2023-02-11T06:17:37.659Z,0.00
2023-02-11T06:18:21.870Z,0.00
2023-02-11T06:18:53.736Z,0.00
2023-02-11T06:19:25.634Z,0.00
2023-02-11T06:19:57.594Z,0.00
2023-02-11T06:20:29.858Z,0.00
2023-02-11T06:21:02.243Z,0.00
2023-02-11T06:21:43.389Z,0.00
2023-02-11T06:21:49.802Z,0.00
2023-02-11T06:22:34.858Z,0.00
2023-02-11T06:23:05.586Z,0.00
2023-02-11T06:23:37.430Z,0.00
2023-02-11T06:24:09.335Z,0.00
2023-02-11T06:24:59.815Z,0.00
2023-02-11T06:25:13.674Z,0.00
2023-02-11T06:25:45.279Z,0.00
2023-02-11T06:26:17.136Z,0.00
2023-02-11T06:26:49.306Z,0.00
2023-02-11T06:27:21.384Z,0.00
2023-02-11T06:27:53.397Z,0.00
2023-02-11T06:28:25.221Z,0.00
2023-02-11T06:28:57.274Z,0.00
2023-02-11T06:29:29.223Z,0.00
2023-02-11T06:30:03.881Z,0.00
2023-02-11T06:30:33.035Z,0.00
2023-02-11T06:30:49.756Z,0.00
2023-02-11T06:31:21.135Z,0.00
2023-02-11T06:31:37.164Z,0.00
2023-02-11T06:32:23.325Z,0.00
2023-02-11T06:32:44.308Z,0.00
2023-02-11T06:33:13.173Z,0.00
2023-02-11T06:33:44.956Z,0.00
2023-02-11T06:34:16.804Z,0.00
2023-02-11T06:34:49.014Z,0.00
2023-02-11T06:35:21.407Z,0.00
2023-02-11T06:35:53.067Z,0.00
2023-02-11T06:36:25.072Z,0.00
2023-02-11T06:36:56.734Z,0.00
2023-02-11T06:37:28.845Z,0.00
2023-02-11T06:38:01.068Z,0.00
2023-02-11T06:38:32.973Z,0.00
2023-02-11T06:39:04.965Z,0.00
2023-02-11T06:39:21.156Z,0.00
2023-02-11T06:39:52.699Z,0.00
2023-02-11T06:40:37.010Z,0.00
2023-02-11T06:41:08.617Z,0.00
2023-02-11T06:41:40.703Z,0.00
2023-02-11T06:42:12.938Z,0.00
2023-02-11T06:42:44.632Z,0.00
2023-02-11T06:43:16.424Z,0.36
2023-02-11T06:43:48.553Z,0.00
2023-02-11T06:44:04.810Z,0.00
2023-02-11T06:44:48.576Z,0.00
2023-02-11T06:45:21.215Z,0.00
2023-02-11T06:45:52.676Z,0.85
2023-02-11T06:46:24.436Z,0.00
2023-02-11T06:46:56.647Z,1.22
2023-02-11T06:47:28.666Z,1.22
2023-02-11T06:48:00.552Z,1.22
2023-02-11T06:48:32.806Z,0.85
2023-02-11T06:48:48.688Z,1.71
2023-02-11T06:49:20.657Z,1.22
2023-02-11T06:49:36.557Z,1.71
2023-02-11T06:50:08.625Z,1.22
2023-02-11T06:50:40.726Z,1.71
2023-02-11T06:51:12.906Z,1.71
2023-02-11T06:51:44.521Z,2.08
2023-02-11T06:52:16.279Z,2.94
2023-02-11T06:52:48.260Z,2.57
2023-02-11T06:53:05.133Z,2.08
2023-02-11T06:53:36.220Z,2.57
2023-02-11T06:54:20.665Z,2.94
2023-02-11T06:54:52.393Z,2.57
2023-02-11T06:55:24.497Z,2.94
2023-02-11T06:55:40.452Z,2.94
2023-02-11T06:56:24.292Z,2.57
2023-02-11T06:56:56.300Z,3.43
2023-02-11T06:57:28.120Z,2.94